Nearby METAR Reports

 

KHQM - Hoquiam,WA, USA
Updated: Thu, 03-Dec-2020 10:53am PST
Partly cloudy
Partly cloudy
 Wind from E
Wind: E 7 mph , 11 km/h
Temperature: 41°F , 5°C
Wind Chill: 36°F , 2°C
Dew Point: 36°F , 2°C
Humidity: 81%
Barometer: 30.29 inHg , 1025.7 hPa
Clouds: Partly cloudy
Visibility: 10 miles , 16 km
Cloud details: Partly cloudy 12000 ft
2020/12/03 18:53 KHQM 031853Z AUTO 10006KT 10SM SCT120 05/02 A3029 RMK AO2 SLP260 T00500022
KAST - Astoria,OR, USA
Updated: Thu, 03-Dec-2020 10:55am PST
Clear
Clear
 Wind from calm
Wind: Calm
Temperature: 46°F , 8°C
Dew Point: 36°F , 2°C
Humidity: 66%
Barometer: 30.29 inHg , 1025.7 hPa
Clouds: Clear
Visibility: 10 miles , 16 km
2020/12/03 18:55 KAST 031855Z AUTO 00000KT 10SM CLR 08/02 A3029 RMK AO2 SLP257 T00780022